createdAt,value
2023-04-22T00:00:37.155Z,32.83
2023-04-22T00:03:18.728Z,37.75
2023-04-22T00:05:47.258Z,43.88
2023-04-22T00:08:15.122Z,45.17
2023-04-22T00:10:43.103Z,43.40
2023-04-22T00:13:10.894Z,47.80
2023-04-22T00:15:39.081Z,36.90
2023-04-22T00:18:07.428Z,40.53
2023-04-22T00:20:36.467Z,38.20
2023-04-22T00:23:04.088Z,35.83
2023-04-22T00:25:32.163Z,34.55
2023-04-22T00:27:59.844Z,37.63
2023-04-22T00:30:27.815Z,33.95
2023-04-22T00:32:56.146Z,38.70
2023-04-22T00:35:24.295Z,34.95
2023-04-22T00:37:52.024Z,38.20
2023-04-22T00:40:20.269Z,37.00
2023-04-22T00:42:50.846Z,34.78
2023-04-22T00:45:20.903Z,44.15
2023-04-22T00:47:49.253Z,33.00
2023-04-22T00:50:17.544Z,41.35
2023-04-22T00:52:45.299Z,33.97
2023-04-22T00:55:13.390Z,36.60
2023-04-22T00:57:42.523Z,35.08
2023-04-22T01:00:11.700Z,39.25
2023-04-22T01:02:39.968Z,38.67
2023-04-22T01:05:11.726Z,38.30
2023-04-22T01:07:39.426Z,36.25
2023-04-22T01:10:08.130Z,37.33
2023-04-22T01:12:35.930Z,35.65
2023-04-22T01:15:05.181Z,35.83
2023-04-22T01:17:33.892Z,34.25
2023-04-22T01:20:04.135Z,31.38
2023-04-22T01:22:36.767Z,37.60
2023-04-22T01:25:04.983Z,33.58
2023-04-22T01:27:32.874Z,37.15
2023-04-22T01:30:01.244Z,37.95
2023-04-22T01:32:30.729Z,35.83
2023-04-22T01:34:59.393Z,38.47
2023-04-22T01:37:27.069Z,32.67
2023-04-22T01:39:55.722Z,34.03
2023-04-22T01:42:23.891Z,34.42
2023-04-22T01:44:51.936Z,31.67
2023-04-22T01:47:19.584Z,34.75
2023-04-22T01:49:47.672Z,39.05
2023-04-22T01:52:15.421Z,38.67
2023-04-22T01:54:43.412Z,36.35
2023-04-22T01:57:14.272Z,34.58
2023-04-22T01:59:42.606Z,35.17
2023-04-22T02:02:10.665Z,38.75
2023-04-22T02:04:38.743Z,31.75
2023-04-22T02:07:06.634Z,32.22
2023-04-22T02:09:37.473Z,31.55
2023-04-22T02:12:05.626Z,30.27
2023-04-22T02:14:33.557Z,31.60
2023-04-22T02:17:04.773Z,36.08
2023-04-22T02:19:32.997Z,33.78
2023-04-22T02:22:02.493Z,33.25
2023-04-22T02:24:30.533Z,33.22
2023-04-22T02:27:00.320Z,31.27
2023-04-22T02:29:28.891Z,30.13
2023-04-22T02:32:00.085Z,35.97
2023-04-22T02:34:28.458Z,31.08
2023-04-22T02:36:56.485Z,31.27
2023-04-22T02:39:25.321Z,31.73
2023-04-22T02:41:53.091Z,29.48
2023-04-22T02:44:21.188Z,31.42
2023-04-22T02:46:48.881Z,30.35
2023-04-22T02:49:16.888Z,32.20
2023-04-22T02:51:45.063Z,32.65
2023-04-22T02:54:13.167Z,29.60
2023-04-22T02:56:40.792Z,32.22
2023-04-22T02:59:08.749Z,32.13
2023-04-22T03:01:36.616Z,33.35
2023-04-22T03:04:07.746Z,31.35
2023-04-22T03:06:35.550Z,33.50
2023-04-22T03:09:04.135Z,28.33
2023-04-22T03:11:32.678Z,31.05
2023-04-22T03:14:00.598Z,31.45
2023-04-22T03:16:28.470Z,38.42
2023-04-22T03:18:59.681Z,32.60
2023-04-22T03:21:28.756Z,33.40
2023-04-22T03:23:57.069Z,31.25
2023-04-22T03:26:24.886Z,36.65
2023-04-22T03:28:53.014Z,34.17
2023-04-22T03:31:20.806Z,35.60
2023-04-22T03:33:49.525Z,35.38
2023-04-22T03:36:25.039Z,37.17
2023-04-22T03:38:53.044Z,34.00
2023-04-22T03:41:21.401Z,38.55
2023-04-22T03:43:49.883Z,32.80
2023-04-22T03:46:18.365Z,36.55
2023-04-22T03:48:54.450Z,33.65
2023-04-22T03:51:27.583Z,42.70
2023-04-22T03:53:56.220Z,39.28
2023-04-22T03:56:26.545Z,34.50
2023-04-22T03:58:58.492Z,33.35
2023-04-22T04:01:27.589Z,36.25
2023-04-22T04:03:59.870Z,33.65
2023-04-22T04:06:35.542Z,44.28
2023-04-22T04:09:04.048Z,38.50
2023-04-22T04:11:32.116Z,38.45
2023-04-22T04:14:00.988Z,39.05
2023-04-22T04:16:33.859Z,42.83
2023-04-22T04:19:09.898Z,33.80
2023-04-22T04:21:39.741Z,34.15
2023-04-22T04:24:08.509Z,39.80
2023-04-22T04:26:42.403Z,32.60
2023-04-22T04:29:15.922Z,30.45
2023-04-22T04:31:49.933Z,43.08
2023-04-22T04:34:19.217Z,35.20
2023-04-22T04:36:47.704Z,33.10
2023-04-22T04:39:22.549Z,36.63
2023-04-22T04:41:55.158Z,35.03
2023-04-22T04:44:23.907Z,32.78
2023-04-22T04:46:54.947Z,31.52
2023-04-22T04:49:23.760Z,31.98
2023-04-22T04:51:57.799Z,26.15
2023-04-22T04:54:27.464Z,29.30
2023-04-22T04:56:57.403Z,26.08
2023-04-22T04:59:26.210Z,28.75
2023-04-22T05:01:54.478Z,21.73
2023-04-22T05:04:22.908Z,25.02
2023-04-22T05:06:50.756Z,21.45
2023-04-22T05:09:19.128Z,20.90
2023-04-22T05:11:49.370Z,21.13
2023-04-22T05:14:20.453Z,20.85
2023-04-22T05:16:48.963Z,18.98
2023-04-22T05:19:16.970Z,20.42
2023-04-22T05:21:45.651Z,21.73
2023-04-22T05:24:13.628Z,18.48
2023-04-22T05:26:41.724Z,23.25
2023-04-22T05:29:15.912Z,18.23
2023-04-22T05:31:43.753Z,20.98
2023-04-22T05:34:12.551Z,17.77
2023-04-22T05:36:40.732Z,18.13
2023-04-22T05:39:09.322Z,23.92
2023-04-22T05:41:37.165Z,24.48
2023-04-22T05:44:09.279Z,17.60
2023-04-22T05:46:37.211Z,18.58
2023-04-22T05:49:05.375Z,19.83
2023-04-22T05:51:51.751Z,22.58
2023-04-22T05:54:23.139Z,16.80
2023-04-22T05:56:50.822Z,21.38
2023-04-22T05:59:19.710Z,19.33
2023-04-22T06:01:50.054Z,16.95
2023-04-22T06:04:21.096Z,23.98
2023-04-22T06:06:49.955Z,15.18
2023-04-22T06:09:18.046Z,21.33
2023-04-22T06:11:45.767Z,14.60
2023-04-22T06:14:16.184Z,17.77
2023-04-22T06:16:45.622Z,18.25
2023-04-22T06:19:13.843Z,18.73
2023-04-22T06:21:42.652Z,17.15
2023-04-22T06:24:10.958Z,15.77
2023-04-22T06:26:38.829Z,14.95
2023-04-22T06:29:07.201Z,19.15
2023-04-22T06:31:37.329Z,21.35
2023-04-22T06:34:06.021Z,16.05
2023-04-22T06:36:37.575Z,15.75
2023-04-22T06:39:07.480Z,14.85
2023-04-22T06:41:42.161Z,14.90
2023-04-22T06:44:29.708Z,17.55
2023-04-22T06:47:15.899Z,17.63
2023-04-22T06:49:55.026Z,16.38
2023-04-22T06:52:29.959Z,12.82
2023-04-22T06:54:59.915Z,19.38
2023-04-22T06:57:27.749Z,10.68
2023-04-22T06:59:55.817Z,20.30
2023-04-22T07:02:26.261Z,11.75
2023-04-22T07:04:54.682Z,15.32
2023-04-22T07:07:22.489Z,13.65
2023-04-22T07:09:50.619Z,12.48
2023-04-22T07:12:18.417Z,11.23
2023-04-22T07:14:46.747Z,17.48
2023-04-22T07:17:14.442Z,13.18
2023-04-22T07:19:42.514Z,13.60
2023-04-22T07:22:10.766Z,13.57
2023-04-22T07:24:39.923Z,11.52
2023-04-22T07:27:07.810Z,11.73
2023-04-22T07:29:35.805Z,12.68
2023-04-22T07:32:03.514Z,11.63
2023-04-22T07:34:31.411Z,12.80
2023-04-22T07:36:59.326Z,11.38
2023-04-22T07:39:27.670Z,9.30
2023-04-22T07:41:57.573Z,11.95
2023-04-22T07:44:25.744Z,13.73
2023-04-22T07:46:54.102Z,9.10
2023-04-22T07:49:22.086Z,9.80
2023-04-22T07:51:49.722Z,7.15
2023-04-22T07:54:17.663Z,10.68
2023-04-22T07:56:45.363Z,6.72
2023-04-22T07:59:13.250Z,4.88
2023-04-22T08:01:41.017Z,8.57
2023-04-22T08:04:09.251Z,9.10
2023-04-22T08:06:37.173Z,7.25
2023-04-22T08:09:05.315Z,10.35
2023-04-22T08:11:33.036Z,6.70
2023-04-22T08:14:01.010Z,6.15
2023-04-22T08:16:28.779Z,8.57
2023-04-22T08:18:57.889Z,7.53
2023-04-22T08:21:26.611Z,7.25
2023-04-22T08:23:55.013Z,27.42
2023-04-22T08:26:22.801Z,6.03
2023-04-22T08:28:50.819Z,5.57
2023-04-22T08:31:18.686Z,7.22
2023-04-22T08:33:46.851Z,5.15
2023-04-22T08:36:14.588Z,5.57
2023-04-22T08:38:42.891Z,6.10
2023-04-22T08:41:10.841Z,7.38
2023-04-22T08:43:38.909Z,6.13
2023-04-22T08:46:06.777Z,5.35
2023-04-22T08:48:34.805Z,6.20
2023-04-22T08:51:02.765Z,3.92
2023-04-22T08:53:31.736Z,7.13
2023-04-22T08:56:00.095Z,3.42
2023-04-22T08:58:29.205Z,4.88
2023-04-22T09:00:57.623Z,3.22
2023-04-22T09:03:26.289Z,3.95
2023-04-22T09:05:55.196Z,6.40
2023-04-22T09:08:23.538Z,5.65
2023-04-22T09:10:51.441Z,6.10
2023-04-22T09:13:21.995Z,7.88
2023-04-22T09:15:49.689Z,7.07
2023-04-22T09:18:21.755Z,4.05
2023-04-22T09:20:54.480Z,7.70
2023-04-22T09:23:22.736Z,6.30
2023-04-22T09:25:51.020Z,6.25
2023-04-22T09:28:20.174Z,6.45
2023-04-22T09:30:48.052Z,4.78
2023-04-22T09:33:17.408Z,3.10
2023-04-22T09:35:45.366Z,4.93
2023-04-22T09:38:13.779Z,3.25
2023-04-22T09:40:44.935Z,6.55
2023-04-22T09:43:17.855Z,4.13
2023-04-22T09:45:46.248Z,5.88
2023-04-22T09:48:17.758Z,4.20
2023-04-22T09:50:48.007Z,6.13
2023-04-22T09:53:18.982Z,3.92
2023-04-22T09:55:54.811Z,3.78
2023-04-22T09:58:24.052Z,4.80
2023-04-22T10:00:56.084Z,4.60
2023-04-22T10:03:24.058Z,5.95
2023-04-22T10:05:51.755Z,6.38
2023-04-22T10:08:19.723Z,6.85
2023-04-22T10:10:47.648Z,4.50
2023-04-22T10:13:15.826Z,5.80
2023-04-22T10:15:53.027Z,5.30
2023-04-22T10:18:27.127Z,4.60
2023-04-22T10:20:56.629Z,4.05
2023-04-22T10:23:25.942Z,4.30
2023-04-22T10:25:57.536Z,5.32
2023-04-22T10:28:29.585Z,3.50
2023-04-22T10:30:57.397Z,5.93
2023-04-22T10:33:27.707Z,6.60
2023-04-22T10:36:14.199Z,4.25
2023-04-22T10:38:53.904Z,7.47
2023-04-22T10:41:32.338Z,4.97
2023-04-22T10:44:07.968Z,7.43
2023-04-22T10:46:37.761Z,6.03
2023-04-22T10:49:11.321Z,10.02
2023-04-22T10:51:46.051Z,7.05
2023-04-22T10:54:31.954Z,4.93
2023-04-22T10:57:08.720Z,8.63
2023-04-22T10:59:43.020Z,5.95
2023-04-22T11:04:40.329Z,6.03
2023-04-22T11:07:26.391Z,6.47
2023-04-22T11:10:07.008Z,6.13
2023-04-22T11:12:42.114Z,4.28
2023-04-22T11:15:13.246Z,8.93
2023-04-22T11:17:43.661Z,7.85
2023-04-22T11:20:18.669Z,5.22
2023-04-22T11:22:54.936Z,6.47
2023-04-22T11:25:24.666Z,4.57
2023-04-22T11:27:55.129Z,4.32
2023-04-22T11:30:24.841Z,7.38
2023-04-22T11:32:55.382Z,10.50
2023-04-22T11:35:33.175Z,5.43
2023-04-22T11:38:02.793Z,6.43
2023-04-22T11:40:35.854Z,4.05
2023-04-22T11:43:08.391Z,6.40
2023-04-22T11:45:38.165Z,5.68
2023-04-22T11:48:09.490Z,5.55
2023-04-22T11:50:39.676Z,8.80
2023-04-22T11:53:16.645Z,7.72
2023-04-22T11:55:47.575Z,9.57
2023-04-22T11:58:33.175Z,4.72
2023-04-22T12:01:01.214Z,5.45
2023-04-22T12:03:31.234Z,6.88
2023-04-22T12:06:04.807Z,6.20
2023-04-22T12:08:36.717Z,5.15
2023-04-22T12:11:07.559Z,5.32
2023-04-22T12:13:43.461Z,7.95
2023-04-22T12:16:13.473Z,7.30
2023-04-22T12:18:48.653Z,6.82
2023-04-22T12:21:20.317Z,7.55
2023-04-22T12:23:59.244Z,8.70
2023-04-22T12:26:28.264Z,5.97
2023-04-22T12:28:58.246Z,6.40
2023-04-22T12:31:26.919Z,7.95
2023-04-22T12:33:55.091Z,5.88
2023-04-22T12:36:23.723Z,6.47
2023-04-22T12:38:51.797Z,4.70
2023-04-22T12:41:19.509Z,6.60
2023-04-22T12:43:47.747Z,7.03
2023-04-22T12:46:15.732Z,6.90
2023-04-22T12:48:43.719Z,5.30
2023-04-22T12:51:11.379Z,4.57
2023-04-22T12:53:39.378Z,4.88
2023-04-22T12:56:06.995Z,5.57
2023-04-22T12:58:34.922Z,5.72
2023-04-22T13:01:02.520Z,3.53
2023-04-22T13:03:30.470Z,5.40
2023-04-22T13:05:58.506Z,5.03
2023-04-22T13:08:26.730Z,6.43
2023-04-22T13:10:54.437Z,7.03
2023-04-22T13:13:22.348Z,5.72
2023-04-22T13:15:54.366Z,5.93
2023-04-22T13:18:23.593Z,5.38
2023-04-22T13:20:51.569Z,6.30
2023-04-22T13:23:21.752Z,6.68
2023-04-22T13:25:54.664Z,8.13
2023-04-22T13:28:22.665Z,7.38
2023-04-22T13:30:50.441Z,8.55
2023-04-22T13:33:18.595Z,6.38
2023-04-22T13:35:46.301Z,5.38
2023-04-22T13:38:14.329Z,9.85
2023-04-22T13:40:41.997Z,5.18
2023-04-22T13:43:10.357Z,4.90
2023-04-22T13:45:38.140Z,5.07
2023-04-22T13:48:06.433Z,10.63
2023-04-22T13:50:34.395Z,4.03
2023-04-22T13:53:03.988Z,4.30
2023-04-22T13:55:33.273Z,4.65
2023-04-22T13:58:01.355Z,4.53
2023-04-22T14:00:29.220Z,6.68
2023-04-22T14:02:57.570Z,5.05
2023-04-22T14:05:25.597Z,4.38
2023-04-22T14:07:54.207Z,8.23
2023-04-22T14:10:22.203Z,4.00
2023-04-22T14:12:50.333Z,5.80
2023-04-22T14:15:18.114Z,4.88
2023-04-22T14:17:49.415Z,8.95
2023-04-22T14:20:17.465Z,6.57
2023-04-22T14:22:46.308Z,6.22
2023-04-22T14:25:14.152Z,12.43
2023-04-22T14:27:42.714Z,7.15
2023-04-22T14:30:11.137Z,6.57
2023-04-22T14:32:39.103Z,7.60
2023-04-22T14:35:07.214Z,10.52
2023-04-22T14:37:36.065Z,5.90
2023-04-22T14:40:04.322Z,8.02
2023-04-22T14:42:32.276Z,4.78
2023-04-22T14:45:00.136Z,7.43
2023-04-22T14:47:28.188Z,10.45
2023-04-22T14:49:56.366Z,7.13
2023-04-22T14:52:24.419Z,4.78
2023-04-22T14:54:52.378Z,8.65
2023-04-22T14:57:20.556Z,5.75
2023-04-22T14:59:48.201Z,5.85
2023-04-22T15:02:16.423Z,8.05
2023-04-22T15:04:44.808Z,7.47
2023-04-22T15:07:12.819Z,5.93
2023-04-22T15:09:40.771Z,4.25
2023-04-22T15:12:09.290Z,6.63
2023-04-22T15:14:37.438Z,6.13
2023-04-22T15:17:06.186Z,9.07
2023-04-22T15:19:34.017Z,11.30
2023-04-22T15:22:02.295Z,10.13
2023-04-22T15:24:31.249Z,17.52
2023-04-22T15:27:00.734Z,9.32
2023-04-22T15:29:28.627Z,8.63
2023-04-22T15:31:57.184Z,16.17
2023-04-22T15:34:25.639Z,9.77
2023-04-22T15:36:53.911Z,16.88
2023-04-22T15:39:23.444Z,14.95
2023-04-22T15:41:51.410Z,11.32
2023-04-22T15:44:19.787Z,7.00
2023-04-22T15:46:47.925Z,6.00
2023-04-22T15:49:15.674Z,8.38
2023-04-22T15:51:43.804Z,6.32
2023-04-22T15:54:12.178Z,8.95
2023-04-22T15:56:40.632Z,18.27
2023-04-22T15:59:08.349Z,17.27
2023-04-22T16:01:37.645Z,14.90
2023-04-22T16:04:07.029Z,21.75
2023-04-22T16:06:35.742Z,13.30
2023-04-22T16:09:03.833Z,11.50
2023-04-22T16:11:32.042Z,11.25
2023-04-22T16:13:59.728Z,6.72
2023-04-22T16:16:28.015Z,8.50
2023-04-22T16:18:55.825Z,8.20
2023-04-22T16:21:23.864Z,11.13
2023-04-22T16:23:51.620Z,9.07
2023-04-22T16:26:19.820Z,13.65
2023-04-22T16:28:47.557Z,16.38
2023-04-22T16:31:18.027Z,11.13
2023-04-22T16:33:46.288Z,15.93
2023-04-22T16:36:14.288Z,14.65
2023-04-22T16:38:41.970Z,14.38
2023-04-22T16:41:11.686Z,19.30
2023-04-22T16:43:41.064Z,8.70
2023-04-22T16:46:09.434Z,11.77
2023-04-22T16:48:37.108Z,10.80
2023-04-22T16:51:05.430Z,15.20
2023-04-22T16:53:33.101Z,10.98
2023-04-22T16:56:01.138Z,12.02
2023-04-22T16:58:28.808Z,15.93
2023-04-22T17:00:56.730Z,12.13
2023-04-22T17:03:25.386Z,13.40
2023-04-22T17:05:53.628Z,10.40
2023-04-22T17:08:21.418Z,9.90
2023-04-22T17:10:49.329Z,9.15
2023-04-22T17:13:17.357Z,13.43
2023-04-22T17:15:45.261Z,13.15
2023-04-22T17:18:14.323Z,14.85
2023-04-22T17:20:42.485Z,13.90
2023-04-22T17:23:10.324Z,15.50
2023-04-22T17:25:38.299Z,14.73
2023-04-22T17:28:05.960Z,11.55
2023-04-22T17:30:33.913Z,19.55
2023-04-22T17:33:01.626Z,24.25
2023-04-22T17:35:29.639Z,16.13
2023-04-22T17:37:57.974Z,16.35
2023-04-22T17:40:26.361Z,21.88
2023-04-22T17:42:54.009Z,20.77
2023-04-22T17:45:22.107Z,25.50
2023-04-22T17:47:49.776Z,23.77
2023-04-22T17:50:17.874Z,22.38
2023-04-22T17:52:45.499Z,25.77
2023-04-22T17:55:13.477Z,21.48
2023-04-22T17:57:42.272Z,23.80
2023-04-22T18:00:10.982Z,27.40
2023-04-22T18:02:41.137Z,31.13
2023-04-22T18:05:09.675Z,23.02
2023-04-22T18:07:37.307Z,28.17
2023-04-22T18:10:05.689Z,42.60
2023-04-22T18:12:33.477Z,42.35
2023-04-22T18:15:01.469Z,27.50
2023-04-22T18:17:29.180Z,23.38
2023-04-22T18:20:09.553Z,25.80
2023-04-22T18:22:42.332Z,28.00
2023-04-22T18:25:10.682Z,26.85
2023-04-22T18:27:38.366Z,25.48
2023-04-22T18:30:06.941Z,20.00
2023-04-22T18:32:35.864Z,25.73
2023-04-22T18:35:04.717Z,25.50
2023-04-22T18:37:34.755Z,26.70
2023-04-22T18:40:05.643Z,25.10
2023-04-22T18:42:33.314Z,24.23
2023-04-22T18:45:04.229Z,26.30
2023-04-22T18:47:32.585Z,27.13
2023-04-22T18:50:00.727Z,29.67
2023-04-22T18:52:28.405Z,23.67
2023-04-22T18:54:56.428Z,34.05
2023-04-22T18:57:24.138Z,29.10
2023-04-22T18:59:52.199Z,25.13
2023-04-22T19:02:20.010Z,30.23
2023-04-22T19:04:48.394Z,27.58
2023-04-22T19:07:16.190Z,29.45
2023-04-22T19:09:44.182Z,32.17
2023-04-22T19:12:14.858Z,36.70
2023-04-22T19:14:43.349Z,42.63
2023-04-22T19:17:11.371Z,49.13
2023-04-22T19:19:40.257Z,43.50
2023-04-22T19:22:08.334Z,39.97
2023-04-22T19:24:36.549Z,45.25
2023-04-22T19:27:07.038Z,37.22
2023-04-22T19:29:35.051Z,38.65
2023-04-22T19:32:03.888Z,40.17
2023-04-22T19:34:32.729Z,40.60
2023-04-22T19:37:02.906Z,45.60
2023-04-22T19:39:31.730Z,37.42
2023-04-22T19:42:03.293Z,43.67
2023-04-22T19:44:31.670Z,40.88
2023-04-22T19:46:59.464Z,45.30
2023-04-22T19:49:27.799Z,39.60
2023-04-22T19:51:56.873Z,44.40
2023-04-22T19:54:29.379Z,41.20
2023-04-22T19:56:58.542Z,56.03
2023-04-22T19:59:31.118Z,45.30
2023-04-22T20:01:59.347Z,46.80
2023-04-22T20:04:28.115Z,53.00
2023-04-22T20:06:57.248Z,47.38
2023-04-22T20:09:26.606Z,43.40
2023-04-22T20:11:55.035Z,53.15
2023-04-22T20:14:24.105Z,56.97
2023-04-22T20:16:52.249Z,59.53
2023-04-22T20:19:20.398Z,51.58
2023-04-22T20:21:49.353Z,42.25
2023-04-22T20:24:20.426Z,45.72
2023-04-22T20:26:49.562Z,46.10
2023-04-22T20:29:18.685Z,45.13
2023-04-22T20:31:46.783Z,46.70
2023-04-22T20:34:14.837Z,52.33
2023-04-22T20:36:43.598Z,58.15
2023-04-22T20:39:14.570Z,52.75
2023-04-22T20:41:42.621Z,53.58
2023-04-22T20:44:10.684Z,60.40
2023-04-22T20:46:38.926Z,58.53
2023-04-22T20:49:07.124Z,66.57
2023-04-22T20:51:35.177Z,54.53
2023-04-22T20:54:03.842Z,61.28
2023-04-22T20:56:32.586Z,56.88
2023-04-22T20:59:00.493Z,62.08
2023-04-22T21:01:29.866Z,48.75
2023-04-22T21:03:58.478Z,57.80
2023-04-22T21:06:28.100Z,66.00
2023-04-22T21:08:56.648Z,74.10
2023-04-22T21:11:24.533Z,63.28
2023-04-22T21:13:54.194Z,74.25
2023-04-22T21:16:27.239Z,63.03
2023-04-22T21:18:58.677Z,74.45
2023-04-22T21:21:34.506Z,69.57
2023-04-22T21:24:03.428Z,74.18
2023-04-22T21:26:31.643Z,69.72
2023-04-22T21:29:00.064Z,70.45
2023-04-22T21:31:28.035Z,64.10
2023-04-22T21:33:56.043Z,67.30
2023-04-22T21:36:25.069Z,73.22
2023-04-22T21:38:53.047Z,65.65
2023-04-22T21:41:20.911Z,66.72
2023-04-22T21:43:48.875Z,75.93
2023-04-22T21:46:16.584Z,73.93
2023-04-22T21:48:44.373Z,74.00
2023-04-22T21:51:12.003Z,86.45
2023-04-22T21:53:39.830Z,78.18
2023-04-22T21:56:07.491Z,84.03
2023-04-22T21:58:35.452Z,77.53
2023-04-22T22:01:03.130Z,77.03
2023-04-22T22:03:31.633Z,70.72
2023-04-22T22:05:59.402Z,84.13
2023-04-22T22:08:27.627Z,73.43
2023-04-22T22:10:55.550Z,73.47
2023-04-22T22:13:23.494Z,76.82
2023-04-22T22:15:51.527Z,69.57
2023-04-22T22:18:20.401Z,71.03
2023-04-22T22:20:48.445Z,80.38
2023-04-22T22:23:16.312Z,75.32
2023-04-22T22:25:44.013Z,77.43
2023-04-22T22:28:11.756Z,71.65
2023-04-22T22:30:39.315Z,83.20
2023-04-22T22:33:07.217Z,69.75
2023-04-22T22:35:34.877Z,71.38
2023-04-22T22:38:02.732Z,76.10
2023-04-22T22:40:30.650Z,66.30
2023-04-22T22:42:59.112Z,74.28
2023-04-22T22:45:26.914Z,72.70
2023-04-22T22:47:55.265Z,70.45
2023-04-22T22:50:24.677Z,73.50
2023-04-22T22:52:52.765Z,69.47
2023-04-22T22:55:20.496Z,63.72
2023-04-22T22:57:48.407Z,68.88
2023-04-22T23:00:17.346Z,71.10
2023-04-22T23:02:45.802Z,69.72
2023-04-22T23:05:13.572Z,64.03
2023-04-22T23:07:41.584Z,67.07
2023-04-22T23:10:09.809Z,72.35
2023-04-22T23:12:37.719Z,63.83
2023-04-22T23:15:06.272Z,63.90
2023-04-22T23:17:36.288Z,67.00
2023-04-22T23:20:04.836Z,72.65
2023-04-22T23:22:33.811Z,68.55
2023-04-22T23:25:01.778Z,73.68
2023-04-22T23:27:30.909Z,74.63
2023-04-22T23:29:58.845Z,72.90
2023-04-22T23:32:27.880Z,69.05
2023-04-22T23:34:57.252Z,83.85
2023-04-22T23:37:28.501Z,66.22
2023-04-22T23:39:56.253Z,70.95
2023-04-22T23:42:24.208Z,66.32
2023-04-22T23:44:51.880Z,75.18
2023-04-22T23:47:19.898Z,72.15
2023-04-22T23:49:48.490Z,72.90
2023-04-22T23:52:17.011Z,67.53
2023-04-22T23:54:45.103Z,66.78
2023-04-22T23:57:13.353Z,74.30
2023-04-22T23:59:41.186Z,65.45
